Time;durP1;ratioP1;P1;durP2;ratioP2;P2;SDS_P1;SDS_P2;PMS_P1;PMS_P2;Temp;Humidity;BMP_temperature;BMP_pressure;BME280_temperature;BME280_humidity;BME280_pressure;Samples;Min_cycle;Max_cycle;Signal;HPM_P1;HPM_P2
2022/11/09 00:02:24;;;;;;;21.42;6.30;;;;;;;12.26;93.08;100393.94;5076833;28;20090;-44
2022/11/09 00:04:49;;;;;;;19.90;6.00;;;;;;;12.30;92.75;100405.19;5075121;28;20397;-49
2022/11/09 00:07:14;;;;;;;19.13;5.28;;;;;;;12.34;92.56;100400.13;5075728;28;20028;-48
2022/11/09 00:09:40;;;;;;;24.42;5.93;;;;;;;12.40;92.38;100403.63;5075595;28;20028;-46
2022/11/09 00:12:06;;;;;;;19.48;5.18;;;;;;;12.41;92.30;100408.81;5075251;28;20025;-46
2022/11/09 00:14:32;;;;;;;27.35;5.10;;;;;;;12.38;92.23;100403.59;5075642;28;20507;-47
2022/11/09 00:16:57;;;;;;;24.42;6.00;;;;;;;12.35;92.40;100400.97;5075022;28;20090;-48
2022/11/09 00:19:23;;;;;;;38.28;6.10;;;;;;;12.33;92.67;100392.31;5075202;28;20460;-47
2022/11/09 00:21:48;;;;;;;20.58;5.57;;;;;;;12.31;92.86;100394.03;5075719;28;20028;-49
2022/11/09 00:24:14;;;;;;;22.52;6.38;;;;;;;12.30;93.19;100394.88;5074884;28;20037;-48
2022/11/09 00:26:39;;;;;;;16.73;5.78;;;;;;;12.25;93.44;100397.41;5074812;28;20476;-47
2022/11/09 00:29:05;;;;;;;24.67;6.38;;;;;;;12.26;93.66;100400.84;5073943;28;20421;-47
2022/11/09 00:31:30;;;;;;;20.20;6.35;;;;;;;12.28;93.71;100404.34;5075171;28;20027;-49
2022/11/09 00:33:56;;;;;;;29.95;11.07;;;;;;;12.32;93.63;100403.53;5074755;28;20024;-46
2022/11/09 00:36:23;;;;;;;38.78;13.32;;;;;;;12.30;93.99;100400.03;5075716;28;20024;-46
2022/11/09 00:38:50;;;;;;;63.17;24.50;;;;;;;12.30;93.85;100393.16;5074478;28;20122;-48
2022/11/09 00:41:16;;;;;;;22.25;8.02;;;;;;;12.24;94.33;100387.00;5074863;28;20025;-48
2022/11/09 00:43:42;;;;;;;25.15;7.53;;;;;;;12.24;94.54;100381.84;5075065;28;20027;-47
2022/11/09 00:46:07;;;;;;;22.52;6.32;;;;;;;12.22;94.60;100387.00;5073909;28;20376;-48
2022/11/09 00:48:33;;;;;;;47.85;18.40;;;;;;;12.18;94.96;100386.06;5074941;28;20049;-47
2022/11/09 00:50:59;;;;;;;21.38;5.95;;;;;;;12.10;95.31;100385.09;5074786;28;20384;-49
2022/11/09 00:53:25;;;;;;;25.02;8.52;;;;;;;12.05;95.76;100385.88;5074275;28;20480;-46
2022/11/09 00:56:02;;;;;;;21.35;7.75;;;;;;;12.05;95.71;100383.31;5074951;28;20048;-48
2022/11/09 00:58:29;;;;;;;26.17;8.10;;;;;;;12.05;96.09;100384.16;5074845;28;20535;-48
2022/11/09 01:00:56;;;;;;;51.10;19.15;;;;;;;12.09;95.68;100385.94;5073678;28;20476;-48
2022/11/09 01:03:22;;;;;;;65.68;25.13;;;;;;;12.06;96.01;100380.72;5074950;28;20031;-47
2022/11/09 01:05:48;;;;;;;25.30;6.50;;;;;;;12.14;95.56;100383.44;5074740;28;20028;-45
2022/11/09 01:08:13;;;;;;;24.77;7.70;;;;;;;12.21;94.99;100384.41;5074169;28;20074;-46
2022/11/09 01:10:43;;;;;;;25.33;7.65;;;;;;;12.17;94.96;100392.13;5074800;28;20036;-47
2022/11/09 01:13:10;;;;;;;29.48;7.30;;;;;;;12.18;94.85;100390.38;5074398;28;20503;-47
2022/11/09 01:15:45;;;;;;;30.67;9.82;;;;;;;12.21;94.65;100393.00;5074227;28;20052;-47
2022/11/09 01:18:11;;;;;;;27.05;7.95;;;;;;;12.26;94.42;100393.09;5074389;28;20032;-48
2022/11/09 01:20:41;;;;;;;23.60;8.20;;;;;;;12.30;93.96;100398.34;5074336;28;20021;-48
2022/11/09 01:23:07;;;;;;;24.55;8.02;;;;;;;12.30;93.82;100400.03;5073730;28;20024;-47
2022/11/09 01:25:32;;;;;;;23.38;7.53;;;;;;;12.29;93.49;100408.63;5074429;28;20032;-47
2022/11/09 01:27:58;;;;;;;27.15;6.07;;;;;;;12.28;93.68;100405.19;5073419;28;20472;-49
2022/11/09 01:30:23;;;;;;;22.00;6.57;;;;;;;12.29;93.37;100406.03;5074356;28;20028;-44
2022/11/09 01:32:49;;;;;;;21.33;6.15;;;;;;;12.30;93.23;100407.78;5074353;28;20502;-47
2022/11/09 01:35:14;;;;;;;18.63;5.80;;;;;;;12.19;93.35;100413.66;5073077;28;20032;-48
2022/11/09 01:37:39;;;;;;;22.17;6.47;;;;;;;12.25;93.05;100412.00;5074073;28;20357;-48
2022/11/09 01:40:05;;;;;;;26.17;6.15;;;;;;;12.25;93.01;100418.06;5073468;28;20025;-49
2022/11/09 01:42:35;;;;;;;27.75;5.75;;;;;;;12.24;92.90;100425.78;5073600;28;20029;-48
2022/11/09 01:45:27;;;;;;;22.83;6.28;;;;;;;12.24;92.89;100418.03;5073504;28;20460;-49
2022/11/09 01:48:07;;;;;;;18.70;5.57;;;;;;;12.19;92.87;100421.41;5062841;28;20047;-47
2022/11/09 01:50:38;;;;;;;23.25;6.93;;;;;;;12.19;92.66;100416.25;5073220;28;20025;-46
2022/11/09 01:53:08;;;;;;;19.58;5.55;;;;;;;12.17;92.68;100415.38;5073703;28;20112;-47
2022/11/09 01:55:34;;;;;;;25.73;5.82;;;;;;;12.16;92.50;100420.47;5073797;28;20102;-47
2022/11/09 01:58:04;;;;;;;16.05;4.75;;;;;;;12.15;92.66;100411.00;5072929;28;20419;-48
2022/11/09 02:00:34;;;;;;;27.52;5.90;;;;;;;12.05;92.64;100404.81;5073593;28;20103;-48
2022/11/09 02:03:25;;;;;;;27.48;5.25;;;;;;;12.08;92.81;100404.00;5073013;28;20029;-46
2022/11/09 02:05:51;;;;;;;21.55;6.32;;;;;;;12.01;93.07;100405.63;5073702;28;20039;-49
2022/11/09 02:08:19;;;;;;;23.08;7.35;;;;;;;11.99;93.39;100415.03;5073352;28;20078;-47
2022/11/09 02:11:06;;;;;;;24.38;7.65;;;;;;;11.93;93.52;100410.63;5072748;28;20025;-47
2022/11/09 02:13:33;;;;;;;21.70;6.35;;;;;;;11.93;93.39;100401.97;5073415;28;20090;-47
2022/11/09 02:15:59;;;;;;;16.00;5.00;;;;;;;11.89;93.56;100408.84;5073110;28;20043;-46
2022/11/09 02:18:25;;;;;;;21.75;5.15;;;;;;;11.89;93.50;100398.50;5072870;28;20020;-47
2022/11/09 02:20:56;;;;;;;21.60;4.95;;;;;;;11.86;93.87;100411.34;5073225;28;20464;-48
2022/11/09 02:23:24;;;;;;;23.27;5.45;;;;;;;11.88;93.85;100411.38;5073061;28;20028;-48
2022/11/09 02:25:58;;;;;;;;;;;;;;;11.91;93.33;100409.72;5072875;28;20036;-46
2022/11/09 02:28:25;;;;;;;21.90;4.57;;;;;;;11.93;93.46;100415.78;5073399;28;19967;-48
2022/11/09 02:30:53;;;;;;;16.10;4.55;;;;;;;11.92;93.42;100420.94;5073141;28;20025;-48
2022/11/09 02:33:18;;;;;;;23.75;4.30;;;;;;;11.97;93.15;100417.59;5072486;28;20376;-47
2022/11/09 02:35:43;;;;;;;19.83;4.45;;;;;;;11.98;93.04;100434.84;5073029;28;20495;-47
2022/11/09 02:38:10;;;;;;;29.38;6.15;;;;;;;12.00;93.07;100427.97;5072503;28;20035;-48
2022/11/09 02:40:39;;;;;;;26.80;4.85;;;;;;;12.02;92.84;100433.19;5072889;28;20107;-44
2022/11/09 02:43:07;;;;;;;26.75;5.35;;;;;;;12.05;92.42;100424.63;5072967;28;20055;-47
2022/11/09 02:45:32;;;;;;;24.27;4.78;;;;;;;12.06;92.14;100409.16;5072282;28;20043;-48
2022/11/09 02:47:57;;;;;;;17.10;4.43;;;;;;;12.05;92.18;100409.97;5072522;28;20396;-47
2022/11/09 02:50:23;;;;;;;19.27;4.70;;;;;;;12.14;91.12;100415.28;5072947;28;20054;-47
2022/11/09 02:52:48;;;;;;;17.50;4.57;;;;;;;12.14;91.34;100414.44;5071345;28;20024;-48
2022/11/09 02:55:13;;;;;;;24.20;5.10;;;;;;;12.08;91.37;100397.09;5072378;28;20077;-48
2022/11/09 02:57:39;;;;;;;21.98;4.85;;;;;;;12.13;90.62;100395.47;5073007;28;20020;-46
2022/11/09 03:00:05;;;;;;;21.63;4.82;;;;;;;12.14;90.78;100393.78;5071830;28;20388;-46
2022/11/09 03:02:31;;;;;;;17.98;4.50;;;;;;;12.15;90.24;100401.53;5072681;28;20395;-46
2022/11/09 03:04:56;;;;;;;22.30;3.97;;;;;;;12.19;89.79;100394.72;5072505;28;20029;-48
2022/11/09 03:07:22;;;;;;;23.05;4.85;;;;;;;12.19;89.81;100400.75;5071953;28;20430;-46
2022/11/09 03:09:47;;;;;;;16.85;4.57;;;;;;;12.19;89.15;100410.22;5072728;28;20591;-48
2022/11/09 03:12:27;;;;;;;35.00;4.57;;;;;;;12.18;89.33;100414.50;5072300;28;20028;-48
2022/11/09 03:14:54;;;;;;;25.70;4.53;;;;;;;12.17;89.45;100429.97;5071959;28;20111;-48
2022/11/09 03:17:19;;;;;;;29.95;4.60;;;;;;;12.15;89.18;100431.69;5072746;28;20031;-46
2022/11/09 03:19:45;;;;;;;24.75;4.53;;;;;;;12.16;88.84;100435.97;5072417;28;20029;-48
2022/11/09 03:22:10;;;;;;;28.35;4.45;;;;;;;12.13;89.34;100434.22;5071654;28;20024;-48
2022/11/09 03:24:35;;;;;;;27.52;4.40;;;;;;;12.12;89.27;100442.84;5072725;28;20021;-46
2022/11/09 03:27:01;;;;;;;31.17;4.45;;;;;;;12.09;89.59;100447.94;5072183;28;20529;-48
2022/11/09 03:29:26;;;;;;;25.38;4.53;;;;;;;12.07;89.72;100449.63;5072138;28;20040;-48
2022/11/09 03:31:51;;;;;;;23.02;4.05;;;;;;;12.10;89.48;100449.69;5072633;28;20435;-46
2022/11/09 03:34:16;;;;;;;24.27;5.18;;;;;;;12.07;89.84;100438.41;5072002;28;20043;-47
2022/11/09 03:36:42;;;;;;;26.63;4.95;;;;;;;12.04;89.90;100444.41;5071831;28;20392;-47
2022/11/09 03:39:07;;;;;;;30.42;5.10;;;;;;;12.02;90.28;100451.28;5071941;28;20032;-47
2022/11/09 03:41:33;;;;;;;30.10;4.97;;;;;;;12.04;90.36;100454.72;5071737;28;20020;-47
2022/11/09 03:43:59;;;;;;;26.45;4.97;;;;;;;12.00;90.56;100458.97;5072205;28;20052;-46
2022/11/09 03:46:24;;;;;;;25.80;4.93;;;;;;;11.99;90.77;100456.38;5072228;28;20075;-48
2022/11/09 03:48:49;;;;;;;21.13;4.53;;;;;;;11.97;90.99;100461.50;5071425;28;20052;-46
2022/11/09 03:51:14;;;;;;;26.73;4.25;;;;;;;11.94;91.35;100469.19;5072195;28;20373;-46
2022/11/09 03:53:40;;;;;;;28.52;4.72;;;;;;;11.90;91.69;100472.53;5072339;28;20037;-46
2022/11/09 03:56:05;;;;;;;27.48;4.55;;;;;;;11.90;91.85;100482.00;5071286;28;20434;-46
2022/11/09 03:58:30;;;;;;;30.25;4.35;;;;;;;11.88;92.20;100483.66;5072598;28;20027;-48
2022/11/09 04:00:56;;;;;;;30.52;4.95;;;;;;;11.86;92.39;100481.94;5071953;28;20109;-48
2022/11/09 04:03:21;;;;;;;24.40;4.32;;;;;;;11.83;92.79;100492.22;5072212;28;20017;-48
2022/11/09 04:05:46;;;;;;;25.98;4.43;;;;;;;11.78;93.22;100490.41;5075738;28;20025;-45
2022/11/09 04:08:12;;;;;;;27.17;5.10;;;;;;;11.73;93.62;100484.28;5075488;28;20031;-47
2022/11/09 04:10:37;;;;;;;28.15;5.55;;;;;;;11.67;94.00;100483.31;5075161;28;20035;-45
2022/11/09 04:13:02;;;;;;;24.95;4.47;;;;;;;11.60;94.41;100489.19;5075569;28;20024;-47
2022/11/09 04:15:27;;;;;;;25.60;4.28;;;;;;;11.53;94.99;100498.53;5075558;28;20103;-47
2022/11/09 04:17:54;;;;;;;29.67;4.70;;;;;;;11.50;95.37;100501.06;5074751;28;20032;-47
2022/11/09 04:20:20;;;;;;;18.98;4.65;;;;;;;11.40;96.22;100505.97;5075645;28;20031;-48
2022/11/09 04:22:53;;;;;;;20.40;4.72;;;;;;;11.39;96.63;100507.69;5075315;28;20028;-48
2022/11/09 04:25:18;;;;;;;30.60;5.40;;;;;;;11.39;96.78;100511.97;5075091;28;20028;-47
2022/11/09 04:27:43;;;;;;;28.55;4.93;;;;;;;11.31;96.78;100510.13;5075571;28;20381;-48
2022/11/09 04:30:09;;;;;;;24.27;4.88;;;;;;;11.30;97.16;100515.25;5074698;28;20033;-45
2022/11/09 04:32:34;;;;;;;25.75;4.47;;;;;;;11.27;97.69;100521.22;5074919;28;20021;-46
2022/11/09 04:34:59;;;;;;;23.90;4.90;;;;;;;11.25;97.90;100522.88;5075123;28;20078;-44
2022/11/09 04:37:25;;;;;;;34.05;5.00;;;;;;;11.27;97.93;100526.38;5075020;28;21036;-47
2022/11/09 04:39:50;;;;;;;28.73;5.00;;;;;;;11.28;97.69;100522.94;5074718;28;20067;-47
2022/11/09 04:42:15;;;;;;;32.15;5.22;;;;;;;11.28;97.76;100517.78;5075041;28;20073;-48
2022/11/09 04:44:41;;;;;;;30.30;4.63;;;;;;;11.30;97.59;100520.41;5074959;28;20027;-47
2022/11/09 04:47:06;;;;;;;31.75;5.05;;;;;;;11.30;97.71;100521.28;5074003;28;20537;-46
2022/11/09 04:49:31;;;;;;;27.02;4.55;;;;;;;11.35;97.54;100522.25;5075073;28;20024;-49
2022/11/09 04:51:57;;;;;;;26.13;4.88;;;;;;;11.33;97.67;100530.78;5073867;28;20028;-48
2022/11/09 04:54:22;;;;;;;23.42;5.25;;;;;;;11.31;97.69;100528.19;5075232;28;20024;-48
2022/11/09 04:56:47;;;;;;;24.80;4.70;;;;;;;11.24;98.00;100525.44;5075031;28;20020;-45
2022/11/09 04:59:12;;;;;;;37.15;5.68;;;;;;;11.18;98.38;100527.03;5073929;28;20055;-47
2022/11/09 05:01:38;;;;;;;34.10;4.90;;;;;;;11.16;98.69;100523.53;5074940;28;20025;-48
2022/11/09 05:04:03;;;;;;;27.67;5.60;;;;;;;11.14;98.92;100514.94;5074539;28;20047;-48
2022/11/09 05:06:31;;;;;;;23.38;4.72;;;;;;;11.12;98.98;100511.44;5073828;28;20422;-47
2022/11/09 05:08:58;;;;;;;35.45;5.35;;;;;;;11.05;98.94;100506.97;5074572;28;20032;-47
2022/11/09 05:11:24;;;;;;;25.52;4.65;;;;;;;11.05;99.53;100519.84;5074730;28;20131;-45
2022/11/09 05:13:53;;;;;;;30.80;5.35;;;;;;;11.02;99.57;100514.63;5074183;28;20028;-45
2022/11/09 05:16:19;;;;;;;25.85;5.30;;;;;;;11.03;99.78;100516.38;5073887;28;20021;-48
2022/11/09 05:18:45;;;;;;;32.42;5.72;;;;;;;11.01;99.94;100518.06;5074233;28;20048;-45
2022/11/09 05:21:10;;;;;;;29.00;4.50;;;;;;;11.00;99.99;100516.31;5073454;28;20396;-48
2022/11/09 05:26:20;;;;;;;30.60;5.25;;;;;;;10.98;100.00;100512.84;5074245;28;20043;-48
2022/11/09 05:28:45;;;;;;;31.17;5.68;;;;;;;10.97;100.00;100511.09;5073931;28;20029;-47
2022/11/09 05:31:10;;;;;;;34.38;5.80;;;;;;;10.96;99.84;100510.22;5074094;28;20024;-47
2022/11/09 05:33:36;;;;;;;32.17;5.20;;;;;;;10.91;100.00;100509.25;5074108;28;20025;-48
2022/11/09 05:36:01;;;;;;;33.92;5.82;;;;;;;10.93;100.00;100517.00;5073487;28;20020;-47
2022/11/09 05:38:26;;;;;;;29.17;4.90;;;;;;;10.83;100.00;100521.06;5074192;28;20146;-49
2022/11/09 05:40:52;;;;;;;31.15;5.50;;;;;;;10.86;100.00;100519.44;5073935;28;20472;-48
2022/11/09 05:43:18;;;;;;;30.75;5.50;;;;;;;10.79;100.00;100524.41;5073495;28;20024;-48
2022/11/09 05:45:44;;;;;;;36.40;6.00;;;;;;;10.79;100.00;100527.84;5073870;28;20035;-47
2022/11/09 05:48:14;;;;;;;31.80;5.53;;;;;;;10.75;100.00;100520.91;5072568;28;20055;-44
2022/11/09 05:50:41;;;;;;;26.90;5.40;;;;;;;10.69;100.00;100521.63;5074043;28;20181;-47
2022/11/09 05:53:07;;;;;;;29.92;5.50;;;;;;;10.75;100.00;100525.19;5073653;28;20028;-47
2022/11/09 05:55:32;;;;;;;37.47;6.90;;;;;;;10.70;100.00;100522.50;5072969;28;20035;-45
2022/11/09 05:57:58;;;;;;;34.33;5.25;;;;;;;10.69;100.00;100516.47;5073499;28;20043;-49
2022/11/09 06:00:23;;;;;;;43.17;6.07;;;;;;;10.66;100.00;100520.69;5073691;28;20020;-48
2022/11/09 06:02:49;;;;;;;42.03;6.53;;;;;;;10.63;100.00;100516.31;5072753;28;20056;-44
2022/11/09 06:05:15;;;;;;;48.28;6.70;;;;;;;10.64;100.00;100522.34;5073371;28;20044;-47
2022/11/09 06:07:40;;;;;;;30.88;5.40;;;;;;;10.62;100.00;100517.16;5073457;28;20045;-47
2022/11/09 06:10:06;;;;;;;37.30;5.60;;;;;;;10.57;100.00;100525.63;5072507;28;20056;-48
2022/11/09 06:12:32;;;;;;;30.58;5.32;;;;;;;10.61;100.00;100530.88;5073445;28;20033;-48
2022/11/09 06:14:57;;;;;;;28.33;6.18;;;;;;;10.56;100.00;100527.34;5072995;28;20388;-48
2022/11/09 06:17:22;;;;;;;27.38;5.50;;;;;;;10.54;100.00;100527.28;5072826;28;20020;-48
2022/11/09 06:19:48;;;;;;;31.38;5.45;;;;;;;10.55;100.00;100528.16;5073294;28;20024;-45
2022/11/09 06:22:13;;;;;;;34.78;5.97;;;;;;;10.56;100.00;100524.75;5072809;28;20028;-47
2022/11/09 06:24:38;;;;;;;27.92;5.45;;;;;;;10.53;100.00;100530.72;5072556;28;20020;-48
2022/11/09 06:27:04;;;;;;;30.02;5.38;;;;;;;10.50;100.00;100537.50;5072047;28;20038;-49
2022/11/09 06:29:29;;;;;;;33.80;5.65;;;;;;;10.46;100.00;100539.09;5072797;28;20032;-45
2022/11/09 06:31:54;;;;;;;31.15;6.28;;;;;;;10.50;100.00;100546.06;5072300;28;20353;-44
2022/11/09 06:34:20;;;;;;;30.20;5.88;;;;;;;10.44;100.00;100543.34;5073180;28;20044;-45
2022/11/09 06:36:45;;;;;;;39.83;6.22;;;;;;;10.49;100.00;100548.63;5072886;28;20110;-45
2022/11/09 06:39:10;;;;;;;32.70;5.57;;;;;;;10.55;100.00;100548.78;5072236;28;20020;-48
2022/11/09 06:41:36;;;;;;;31.95;6.13;;;;;;;10.53;100.00;100553.91;5072991;28;20154;-48
2022/11/09 06:44:01;;;;;;;41.30;6.25;;;;;;;10.57;100.00;100552.25;5072457;28;20046;-46
2022/11/09 06:46:27;;;;;;;35.65;6.10;;;;;;;10.58;100.00;100553.13;5072200;28;20111;-48
2022/11/09 06:48:52;;;;;;;38.90;6.97;;;;;;;10.56;100.00;100557.38;5072611;28;20048;-44
2022/11/09 06:51:17;;;;;;;42.33;5.82;;;;;;;10.56;100.00;100555.69;5073127;28;20070;-47
2022/11/09 06:53:42;;;;;;;37.75;6.55;;;;;;;10.49;100.00;100554.63;5072391;28;20411;-48
2022/11/09 06:56:08;;;;;;;38.53;6.15;;;;;;;10.52;100.00;100559.00;5072544;28;20021;-49
2022/11/09 06:58:34;;;;;;;36.38;6.30;;;;;;;10.53;100.00;100564.22;5072026;28;20448;-47
2022/11/09 07:01:06;;;;;;;29.23;5.70;;;;;;;10.43;100.00;100558.75;5072304;28;20024;-44
2022/11/09 07:03:31;;;;;;;29.48;5.38;;;;;;;10.46;100.00;100559.72;5072964;28;20107;-47
2022/11/09 07:05:56;;;;;;;35.58;5.72;;;;;;;10.42;100.00;100557.91;5071649;28;20099;-48
2022/11/09 07:08:21;;;;;;;33.67;5.88;;;;;;;10.44;100.00;100566.53;5072762;28;20115;-48
2022/11/09 07:10:47;;;;;;;33.50;6.53;;;;;;;10.42;100.00;100568.22;5072481;28;20024;-44
2022/11/09 07:13:12;;;;;;;32.00;5.65;;;;;;;10.45;100.00;100568.28;5071767;28;20038;-47
2022/11/09 07:15:38;;;;;;;36.50;5.88;;;;;;;10.45;100.00;100567.41;5072540;28;20105;-48
2022/11/09 07:18:06;;;;;;;28.52;5.90;;;;;;;10.43;100.00;100580.28;5072175;28;20032;-48
2022/11/09 07:20:32;;;;;;;31.08;6.15;;;;;;;10.45;100.00;100575.16;5071881;28;20419;-48
2022/11/09 07:22:57;;;;;;;31.88;6.78;;;;;;;10.47;100.00;100576.94;5072457;28;20048;-48
2022/11/09 07:25:24;;;;;;;28.17;5.90;;;;;;;10.49;100.00;100577.81;5072180;28;20060;-48
2022/11/09 07:27:49;;;;;;;39.45;7.03;;;;;;;10.49;100.00;100580.41;5071794;28;20485;-48
2022/11/09 07:30:14;;;;;;;40.17;5.53;;;;;;;10.54;100.00;100577.94;5072180;28;20536;-47
2022/11/09 07:32:40;;;;;;;29.50;5.63;;;;;;;10.54;100.00;100583.09;5072394;28;20031;-48
2022/11/09 07:35:06;;;;;;;37.45;6.68;;;;;;;10.52;100.00;100585.66;5071612;28;20036;-44
2022/11/09 07:37:32;;;;;;;34.78;5.57;;;;;;;10.57;100.00;100578.03;5072612;28;20024;-48
2022/11/09 07:39:57;;;;;;;39.58;6.60;;;;;;;10.60;100.00;100592.69;5075278;28;20020;-46
2022/11/09 07:42:24;;;;;;;25.95;5.32;;;;;;;10.60;100.00;100582.38;5075684;28;20043;-46
2022/11/09 07:44:49;;;;;;;30.25;5.20;;;;;;;10.63;100.00;100588.50;5076094;28;20032;-48
2022/11/09 07:47:16;;;;;;;34.40;5.18;;;;;;;10.66;100.00;100585.97;5075620;28;20036;-47
2022/11/09 07:49:41;;;;;;;35.33;5.53;;;;;;;10.68;100.00;100588.63;5075741;28;20096;-45
2022/11/09 07:52:07;;;;;;;33.15;5.40;;;;;;;10.71;100.00;100589.53;5075878;28;20505;-46
2022/11/09 07:54:32;;;;;;;31.65;5.72;;;;;;;10.73;100.00;100594.75;5075952;28;20024;-47
2022/11/09 07:56:57;;;;;;;28.67;5.10;;;;;;;10.73;100.00;100596.44;5075416;28;20032;-48
2022/11/09 07:59:23;;;;;;;30.85;6.28;;;;;;;10.76;100.00;100594.81;5076139;28;20024;-48
2022/11/09 08:01:48;;;;;;;31.13;5.32;;;;;;;10.81;100.00;100598.38;5075117;28;20369;-48
2022/11/09 08:04:13;;;;;;;35.05;6.22;;;;;;;10.87;100.00;100606.28;5075730;28;20060;-47
2022/11/09 08:06:38;;;;;;;40.55;6.05;;;;;;;10.97;100.00;100603.91;5075860;28;20037;-45
2022/11/09 08:09:04;;;;;;;28.60;5.72;;;;;;;11.03;100.00;100606.66;5074780;28;20075;-48
2022/11/09 08:11:29;;;;;;;36.38;6.15;;;;;;;11.06;100.00;100601.53;5075753;28;20024;-48
2022/11/09 08:13:55;;;;;;;25.80;5.40;;;;;;;11.10;100.00;100605.94;5075345;28;20210;-44
2022/11/09 08:16:20;;;;;;;33.28;5.05;;;;;;;11.14;99.98;100602.63;5075208;28;20104;-46
2022/11/09 08:18:47;;;;;;;28.83;6.00;;;;;;;11.18;100.00;100612.16;5075472;28;20165;-44
2022/11/09 08:21:13;;;;;;;31.07;5.63;;;;;;;11.20;99.79;100618.22;5075197;28;20161;-49
2022/11/09 08:23:38;;;;;;;39.42;5.35;;;;;;;11.23;99.60;100613.97;5075092;28;20060;-48
2022/11/09 08:26:04;;;;;;;22.83;5.05;;;;;;;11.28;99.46;100622.69;5075211;28;20036;-47
2022/11/09 08:28:30;;;;;;;27.13;5.72;;;;;;;11.32;99.20;100622.81;5075138;28;20044;-47
2022/11/09 08:30:58;;;;;;;20.30;5.13;;;;;;;11.36;99.01;100628.88;5074716;28;20423;-48
2022/11/09 08:33:26;;;;;;;30.80;5.60;;;;;;;11.41;98.86;100637.59;5075427;28;20023;-48
2022/11/09 08:35:52;;;;;;;25.35;4.60;;;;;;;11.42;97.88;100636.78;5075122;28;20086;-46
2022/11/09 08:38:17;;;;;;;33.90;5.80;;;;;;;11.43;97.69;100638.53;5074671;28;20468;-48
2022/11/09 08:40:42;;;;;;;31.85;5.75;;;;;;;11.49;97.84;100638.66;5075257;28;20034;-49
2022/11/09 08:43:09;;;;;;;28.77;5.25;;;;;;;11.54;97.34;100646.50;5074603;28;20028;-46
2022/11/09 08:45:37;;;;;;;22.80;4.68;;;;;;;11.59;97.38;100641.44;5074682;28;20028;-46
2022/11/09 08:48:03;;;;;;;;;;;;;;;11.62;96.80;100647.56;5075190;28;20098;-49
2022/11/09 08:50:30;;;;;;;23.50;5.20;;;;;;;11.61;96.51;100643.22;5073854;28;19912;-48
2022/11/09 08:52:56;;;;;;;24.73;5.45;;;;;;;11.70;97.11;100640.84;5074197;28;20024;-47
2022/11/09 08:55:22;;;;;;;24.75;5.18;;;;;;;11.72;96.01;100653.78;5074915;28;20036;-47
2022/11/09 08:57:47;;;;;;;29.27;5.43;;;;;;;11.75;95.63;100647.81;5074869;28;20039;-47
2022/11/09 09:00:13;;;;;;;26.83;5.55;;;;;;;11.82;94.87;100642.81;5074157;28;20024;-48
2022/11/09 09:02:38;;;;;;;27.60;5.35;;;;;;;11.79;94.86;100639.31;5074595;28;20029;-46
2022/11/09 09:05:04;;;;;;;27.15;5.63;;;;;;;11.81;95.02;100646.25;5073557;28;20086;-47
2022/11/09 09:07:29;;;;;;;30.15;5.60;;;;;;;11.81;94.93;100638.50;5074661;28;20024;-48
2022/11/09 09:09:55;;;;;;;27.67;4.72;;;;;;;11.91;94.35;100631.81;5074374;28;20027;-47
2022/11/09 09:12:20;;;;;;;31.30;5.40;;;;;;;12.01;93.16;100645.81;5073894;28;20035;-46
2022/11/09 09:14:45;;;;;;;33.72;5.15;;;;;;;12.19;92.48;100646.19;5074801;28;20028;-46
2022/11/09 09:17:11;;;;;;;26.13;4.85;;;;;;;12.34;90.88;100640.44;5074181;28;20047;-49
2022/11/09 09:19:36;;;;;;;28.48;5.78;;;;;;;12.49;89.21;100645.00;5074034;28;20495;-47
2022/11/09 09:22:01;;;;;;;37.53;5.20;;;;;;;12.61;89.50;100649.53;5074094;28;20028;-48
2022/11/09 09:24:27;;;;;;;39.20;5.15;;;;;;;12.68;87.98;100646.22;5074142;28;20074;-47
2022/11/09 09:26:53;;;;;;;27.35;4.78;;;;;;;12.85;88.03;100643.94;5073353;28;20388;-45
2022/11/09 09:29:18;;;;;;;25.90;5.28;;;;;;;12.94;86.67;100656.16;5074477;28;20154;-45
2022/11/09 09:31:43;;;;;;;30.88;4.65;;;;;;;13.01;86.21;100654.53;5074212;28;20380;-48
2022/11/09 09:34:10;;;;;;;28.02;4.78;;;;;;;13.16;85.89;100648.75;5073454;28;20029;-48
2022/11/09 09:36:36;;;;;;;20.73;4.22;;;;;;;13.23;84.97;100654.88;5074136;28;20031;-44
2022/11/09 09:39:01;;;;;;;28.77;4.63;;;;;;;13.20;84.15;100660.03;5073610;28;20024;-48
2022/11/09 09:41:52;;;;;;;32.45;5.32;;;;;;;13.27;83.18;100661.84;5073461;28;20382;-46
2022/11/09 09:45:00;;;;;;;27.02;4.90;;;;;;;13.33;84.49;100664.53;5074094;28;20029;-46
2022/11/09 09:47:37;;;;;;;29.70;4.75;;;;;;;13.24;83.68;100661.81;5060366;28;20044;-48
2022/11/09 09:50:09;;;;;;;33.67;4.57;;;;;;;13.30;82.76;100667.94;5073690;28;20028;-49
2022/11/09 09:52:52;;;;;;;26.85;4.90;;;;;;;13.03;83.33;100668.38;5073679;28;20016;-49
2022/11/09 09:55:24;;;;;;;22.25;4.68;;;;;;;13.01;82.10;100678.69;5073096;28;20531;-47
2022/11/09 09:57:56;;;;;;;28.02;4.93;;;;;;;13.03;82.28;100683.91;5073547;28;20028;-45
2022/11/09 10:00:25;;;;;;;35.35;4.63;;;;;;;13.15;81.47;100681.50;5073614;28;20025;-46
2022/11/09 10:02:52;;;;;;;34.67;5.10;;;;;;;13.23;81.06;100685.94;5072946;28;20024;-48
2022/11/09 10:05:19;;;;;;;31.98;5.45;;;;;;;13.28;80.64;100694.66;5073216;28;20457;-48
2022/11/09 10:07:54;;;;;;;25.50;4.60;;;;;;;13.44;80.56;100693.19;5073380;28;20029;-48
2022/11/09 10:10:35;;;;;;;30.70;5.43;;;;;;;13.59;80.98;100690.81;5073338;28;20033;-48
2022/11/09 10:13:18;;;;;;;24.23;4.63;;;;;;;13.54;80.28;100686.44;5073165;28;20025;-47
2022/11/09 10:16:09;;;;;;;27.23;4.63;;;;;;;13.48;79.74;100693.28;5072887;28;20183;-49
2022/11/09 10:19:16;;;;;;;22.02;3.90;;;;;;;13.30;80.63;100692.97;5061754;28;20040;-46
2022/11/09 10:21:59;;;;;;;33.03;4.90;;;;;;;13.36;80.08;100685.28;4972156;28;20041;-44
2022/11/09 10:24:30;;;;;;;25.95;4.60;;;;;;;13.47;78.73;100699.28;5063517;28;20124;-44
2022/11/09 10:26:58;;;;;;;35.80;4.80;;;;;;;13.78;77.84;100691.09;5072727;28;20036;-44
2022/11/09 10:29:23;;;;;;;;;;;;;;;14.04;79.13;100696.63;5073054;28;20028;-46
2022/11/09 10:31:55;;;;;;;23.65;4.50;;;;;;;14.43;74.95;100700.53;5072969;28;19935;-48
2022/11/09 10:34:28;;;;;;;25.60;4.75;;;;;;;14.24;73.72;100701.19;5072954;28;20032;-47
2022/11/09 10:37:12;;;;;;;30.13;4.82;;;;;;;13.95;75.47;100714.66;5072420;28;20099;-47
2022/11/09 10:39:55;;;;;;;22.13;4.00;;;;;;;13.82;76.46;100709.28;5073150;28;20047;-47
2022/11/09 10:42:21;;;;;;;33.95;4.43;;;;;;;13.92;75.01;100712.03;5072906;28;20021;-47
2022/11/09 10:44:46;;;;;;;26.65;4.60;;;;;;;13.86;74.85;100709.34;5072270;28;20043;-48
2022/11/09 10:47:13;;;;;;;26.63;4.15;;;;;;;13.64;74.65;100709.03;5072536;28;20606;-48
2022/11/09 10:49:39;;;;;;;28.25;4.65;;;;;;;13.60;75.59;100713.28;5072763;28;20024;-48
2022/11/09 10:52:25;;;;;;;22.85;4.00;;;;;;;13.52;75.89;100719.19;5072051;28;20028;-44
2022/11/09 10:54:51;;;;;;;36.70;4.55;;;;;;;13.53;76.32;100711.47;5072913;28;20031;-48
2022/11/09 10:57:26;;;;;;;23.02;4.00;;;;;;;13.57;76.77;100722.72;5072257;28;20032;-48
2022/11/09 10:59:55;;;;;;;27.40;4.20;;;;;;;13.41;76.00;100719.03;5072122;28;20021;-48
2022/11/09 11:02:23;;;;;;;25.40;4.05;;;;;;;13.22;76.56;100723.00;5072488;28;20036;-49
2022/11/09 11:04:48;;;;;;;21.73;4.15;;;;;;;13.11;77.62;100731.47;5072079;28;20380;-48
2022/11/09 11:07:17;;;;;;;31.33;5.50;;;;;;;12.98;77.95;100726.94;5072503;28;20041;-48
2022/11/09 11:09:42;;;;;;;27.75;4.35;;;;;;;12.93;78.95;100725.97;5072583;28;20017;-48
2022/11/09 11:12:15;;;;;;;27.05;5.05;;;;;;;12.96;79.57;100726.00;5071763;28;20039;-46
2022/11/09 11:14:45;;;;;;;21.35;4.18;;;;;;;13.04;78.90;100727.03;5078588;28;20025;-47
2022/11/09 11:17:41;;;;;;;25.63;5.07;;;;;;;13.17;79.06;100736.75;5078721;28;20025;-49
2022/11/09 11:20:28;;;;;;;40.00;4.82;;;;;;;13.17;78.24;100728.97;5057749;28;20029;-47
2022/11/09 11:23:14;;;;;;;31.77;4.88;;;;;;;13.21;77.31;100729.91;5078977;28;20020;-48